Time;durP1;ratioP1;P1;durP2;ratioP2;P2;SDS_P1;SDS_P2;PMS_P1;PMS_P2;Temp;Humidity;BMP_temperature;BMP_pressure;BME280_temperature;BME280_humidity;BME280_pressure;Samples;Min_cycle;Max_cycle;Signal;HPM_P1;HPM_P2
2023/09/11 00:05:00;;;;;;;;;;;;;;;19.17;100.00;95752.50;10468580;28;1466;-80
2023/09/11 00:10:03;;;;;;;;;;;;;;;19.06;100.00;95747.72;10472592;28;1537;-79
2023/09/11 00:15:06;;;;;;;;;;;;;;;19.03;100.00;95745.69;10462253;28;1482;-79
2023/09/11 00:20:10;;;;;;;;;;;;;;;19.05;100.00;95746.16;10481522;28;2037;-78
2023/09/11 00:25:13;;;;;;;;;;;;;;;18.98;100.00;95743.94;10489389;28;1552;-78
2023/09/11 00:30:15;;;;;;;;;;;;;;;18.95;100.00;95747.28;10481280;28;1523;-79
2023/09/11 00:35:18;;;;;;;;;;;;;;;18.98;100.00;95745.84;10473655;28;1093;-79
2023/09/11 00:40:20;;;;;;;;;;;;;;;18.86;100.00;95744.63;10467932;28;5114;-79
2023/09/11 00:45:23;;;;;;;;;;;;;;;18.87;100.00;95746.22;10460850;28;2532;-80
2023/09/11 00:50:25;;;;;;;;;;;;;;;18.70;100.00;95740.81;10480444;28;1638;-79
2023/09/11 00:55:27;;;;;;;;;;;;;;;18.71;100.00;95747.91;10486885;28;1652;-79
2023/09/11 01:00:30;;;;;;;;;;;;;;;18.67;100.00;95738.78;10480469;28;1902;-79
2023/09/11 01:05:32;;;;;;;;;;;;;;;18.74;100.00;95735.53;10481201;28;1599;-79
2023/09/11 01:10:35;;;;;;;;;;;;;;;18.67;100.00;95743.41;10482380;28;1226;-78
2023/09/11 01:15:38;;;;;;;;;;;;;;;18.66;100.00;95739.06;10502885;28;1443;-79
2023/09/11 01:20:41;;;;;;;;;;;;;;;18.66;100.00;95744.53;10481365;28;1993;-79
2023/09/11 01:25:43;;;;;;;;;;;;;;;18.57;100.00;95737.16;10484061;28;1082;-79
2023/09/11 01:30:46;;;;;;;;;;;;;;;18.53;100.00;95735.44;10486493;28;1757;-79
2023/09/11 01:35:48;;;;;;;;;;;;;;;18.43;100.00;95733.03;10457202;28;1535;-79
2023/09/11 01:40:51;;;;;;;;;;;;;;;18.50;100.00;95730.63;10474538;28;5245;-79
2023/09/11 01:45:53;;;;;;;;;;;;;;;18.62;100.00;95728.03;10459694;28;1228;-79
2023/09/11 01:50:55;;;;;;;;;;;;;;;18.55;100.00;95727.72;10466994;28;1477;-80
2023/09/11 01:55:58;;;;;;;;;;;;;;;18.57;100.00;95722.75;10482939;28;1339;-79
2023/09/11 02:01:00;;;;;;;;;;;;;;;18.48;100.00;95722.78;10442335;28;1934;-78
2023/09/11 02:06:03;;;;;;;;;;;;;;;18.51;100.00;95711.28;10479129;28;1459;-79
2023/09/11 02:11:07;;;;;;;;;;;;;;;18.40;100.00;95707.28;10454606;28;1447;-79
2023/09/11 02:16:09;;;;;;;;;;;;;;;18.29;100.00;95709.56;10462866;28;1971;-79
2023/09/11 02:21:12;;;;;;;;;;;;;;;18.30;100.00;95711.16;10480729;28;1486;-80
2023/09/11 02:26:14;;;;;;;;;;;;;;;18.31;100.00;95712.75;10479805;28;1035;-79
2023/09/11 02:31:16;;;;;;;;;;;;;;;18.31;100.00;95704.56;10469432;28;1572;-79
2023/09/11 02:36:19;;;;;;;;;;;;;;;18.34;100.00;95694.97;10469474;28;1971;-79
2023/09/11 02:41:21;;;;;;;;;;;;;;;18.39;100.00;95702.19;10465030;28;5054;-79
2023/09/11 02:46:24;;;;;;;;;;;;;;;18.43;100.00;95693.03;10483185;28;1482;-79
2023/09/11 02:51:28;;;;;;;;;;;;;;;18.36;100.00;95695.44;10487578;28;1491;-79
2023/09/11 02:56:30;;;;;;;;;;;;;;;18.31;100.00;95690.97;10485920;28;1918;-79
2023/09/11 03:01:33;;;;;;;;;;;;;;;18.28;100.00;95690.84;10467642;28;1357;-79
2023/09/11 03:06:35;;;;;;;;;;;;;;;18.22;100.00;95692.94;10482545;28;1345;-79
2023/09/11 03:11:38;;;;;;;;;;;;;;;18.17;100.00;95686.88;10491086;28;1353;-79
2023/09/11 03:16:43;;;;;;;;;;;;;;;18.20;100.00;95695.19;10479571;28;1984;-78
2023/09/11 03:21:46;;;;;;;;;;;;;;;18.20;100.00;95692.47;10470830;28;1361;-78
2023/09/11 03:26:48;;;;;;;;;;;;;;;18.22;100.00;95687.50;10469633;28;1119;-79
2023/09/11 03:31:50;;;;;;;;;;;;;;;18.21;100.00;95677.72;10445844;28;1450;-79
2023/09/11 03:36:53;;;;;;;;;;;;;;;18.08;100.00;95690.41;10473499;28;2417;-78
2023/09/11 03:41:55;;;;;;;;;;;;;;;18.07;100.00;95686.09;10478828;28;5198;-78
2023/09/11 03:46:58;;;;;;;;;;;;;;;18.02;100.00;95694.41;10487464;28;1395;-79
2023/09/11 03:52:00;;;;;;;;;;;;;;;18.01;100.00;95700.97;10466716;28;1439;-78
2023/09/11 03:57:03;;;;;;;;;;;;;;;17.94;100.00;95699.84;10450034;28;1918;-79
2023/09/11 04:02:05;;;;;;;;;;;;;;;17.83;100.00;95691.25;10463864;28;1349;-79
2023/09/11 04:07:08;;;;;;;;;;;;;;;17.75;100.00;95692.03;10466967;28;1277;-78
2023/09/11 04:12:14;;;;;;;;;;;;;;;18.06;100.00;95694.56;10474671;28;1000;-78
2023/09/11 04:17:18;;;;;;;;;;;;;;;17.87;100.00;95688.66;10494634;28;1973;-78
2023/09/11 04:22:21;;;;;;;;;;;;;;;17.86;100.00;95690.59;10476535;28;1356;-79
2023/09/11 04:27:23;;;;;;;;;;;;;;;17.79;100.00;95693.00;10460901;28;1084;-79
2023/09/11 04:32:26;;;;;;;;;;;;;;;17.75;100.00;95694.75;10487946;28;2249;-80
2023/09/11 04:37:30;;;;;;;;;;;;;;;17.85;100.00;95689.00;10475710;28;1983;-79
2023/09/11 04:42:32;;;;;;;;;;;;;;;17.86;100.00;95697.94;10493367;28;5098;-79
2023/09/11 04:47:34;;;;;;;;;;;;;;;17.86;100.00;95701.47;10447993;28;1650;-78
2023/09/11 04:52:37;;;;;;;;;;;;;;;17.85;100.00;95693.63;10472708;28;1331;-78
2023/09/11 04:57:40;;;;;;;;;;;;;;;17.99;100.00;95695.03;10480000;28;1975;-78
2023/09/11 05:02:44;;;;;;;;;;;;;;;18.05;100.00;95701.13;10488494;28;1348;-78
2023/09/11 05:07:47;;;;;;;;;;;;;;;18.15;100.00;95698.06;10485273;28;1472;-78
2023/09/11 05:12:49;;;;;;;;;;;;;;;18.26;100.00;95707.50;10488242;28;1101;-78
2023/09/11 05:17:52;;;;;;;;;;;;;;;18.44;100.00;95712.88;10466264;28;1902;-78
2023/09/11 05:22:54;;;;;;;;;;;;;;;18.60;100.00;95703.06;10469440;28;1368;-78
2023/09/11 05:27:57;;;;;;;;;;;;;;;18.94;100.00;95698.59;10478156;28;2415;-79
2023/09/11 05:32:59;;;;;;;;;;;;;;;19.04;100.00;95706.41;10497759;28;1485;-80
2023/09/11 05:38:02;;;;;;;;;;;;;;;19.26;100.00;95705.31;10485143;28;1980;-78
2023/09/11 05:43:04;;;;;;;;;;;;;;;19.43;100.00;95703.28;10487061;28;5185;-78
2023/09/11 05:48:11;;;;;;;;;;;;;;;19.50;100.00;95707.41;10483198;28;1146;-79
2023/09/11 05:53:14;;;;;;;;;;;;;;;19.52;100.00;95710.56;10463419;28;1396;-76
2023/09/11 05:58:16;;;;;;;;;;;;;;;19.91;100.00;95710.16;10492217;28;1914;-77
2023/09/11 06:03:18;;;;;;;;;;;;;;;20.41;100.00;95698.22;10478845;28;997;-79
2023/09/11 06:08:21;;;;;;;;;;;;;;;20.79;100.00;95695.25;10481560;28;1535;-78
2023/09/11 06:13:23;;;;;;;;;;;;;;;21.12;100.00;95696.25;10485780;28;1020;-77
2023/09/11 06:18:26;;;;;;;;;;;;;;;21.14;100.00;95686.59;10479732;28;1890;-78
2023/09/11 06:23:28;;;;;;;;;;;;;;;21.28;100.00;95684.31;10481980;28;2516;-78
2023/09/11 06:28:31;;;;;;;;;;;;;;;21.34;100.00;95690.34;10488335;28;1597;-79
2023/09/11 06:33:33;;;;;;;;;;;;;;;21.69;100.00;95689.81;10490346;28;1427;-79
2023/09/11 06:38:36;;;;;;;;;;;;;;;22.05;100.00;95686.16;10474343;28;1927;-79
2023/09/11 06:43:38;;;;;;;;;;;;;;;22.20;100.00;95676.41;10481533;28;5058;-79
2023/09/11 06:48:41;;;;;;;;;;;;;;;22.55;100.00;95688.31;10474813;28;1083;-78
2023/09/11 06:53:44;;;;;;;;;;;;;;;22.90;100.00;95677.47;10476369;28;1437;-79
2023/09/11 06:58:46;;;;;;;;;;;;;;;22.98;100.00;95681.19;10484112;28;2303;-79
2023/09/11 07:03:49;;;;;;;;;;;;;;;23.29;100.00;95676.78;10468790;28;1036;-79
2023/09/11 07:08:52;;;;;;;;;;;;;;;23.52;100.00;95668.66;10458617;28;1346;-79
2023/09/11 07:13:55;;;;;;;;;;;;;;;23.79;100.00;95669.66;10471350;28;1158;-78
2023/09/11 07:18:57;;;;;;;;;;;;;;;24.03;100.00;95666.63;10470704;28;2334;-79
2023/09/11 07:24:00;;;;;;;;;;;;;;;24.22;100.00;95669.34;10475428;28;1585;-79
2023/09/11 07:29:03;;;;;;;;;;;;;;;24.20;100.00;95676.38;10468258;28;1483;-79
2023/09/11 07:34:06;;;;;;;;;;;;;;;24.46;100.00;95671.00;10460722;28;1654;-80
2023/09/11 07:39:09;;;;;;;;;;;;;;;24.61;100.00;95676.72;10459643;28;1910;-80
2023/09/11 07:44:23;;;;;;;;;;;;;;;24.70;100.00;95666.31;10471227;28;1407;-78
2023/09/11 07:49:25;;;;;;;;;;;;;;;24.85;100.00;95668.13;10478968;28;1216;-78
2023/09/11 07:54:28;;;;;;;;;;;;;;;25.06;100.00;95667.69;10481199;28;1626;-78
2023/09/11 07:59:30;;;;;;;;;;;;;;;25.25;100.00;95669.53;10453549;28;1925;-78
2023/09/11 08:04:33;;;;;;;;;;;;;;;25.13;100.00;95667.81;10477711;28;1464;-78
2023/09/11 08:09:35;;;;;;;;;;;;;;;25.11;100.00;95664.63;10467021;28;1574;-78
2023/09/11 08:14:38;;;;;;;;;;;;;;;25.45;100.00;95670.22;10479572;28;2285;-77
2023/09/11 08:19:40;;;;;;;;;;;;;;;25.74;100.00;95663.97;10480322;28;1914;-78
2023/09/11 08:24:43;;;;;;;;;;;;;;;25.91;100.00;95661.81;10471435;28;1667;-79
2023/09/11 08:29:45;;;;;;;;;;;;;;;26.17;100.00;95664.47;10471449;28;1428;-80
2023/09/11 08:34:48;;;;;;;;;;;;;;;26.10;100.00;95661.66;10464953;28;1590;-79
2023/09/11 08:39:50;;;;;;;;;;;;;;;26.08;100.00;95655.72;10483925;28;5079;-79
2023/09/11 08:44:53;;;;;;;;;;;;;;;26.51;100.00;95651.47;10485149;28;1371;-79
2023/09/11 08:49:56;;;;;;;;;;;;;;;26.77;100.00;95653.28;10493011;28;1024;-78
2023/09/11 08:54:58;;;;;;;;;;;;;;;26.86;100.00;95650.22;10479019;28;1618;-79
2023/09/11 09:00:01;;;;;;;;;;;;;;;27.38;100.00;95648.25;10477436;28;1984;-79
2023/09/11 09:05:04;;;;;;;;;;;;;;;27.24;100.00;95639.88;10466072;28;1436;-79
2023/09/11 09:10:06;;;;;;;;;;;;;;;27.43;100.00;95645.91;10476944;28;910;-79
2023/09/11 09:15:09;;;;;;;;;;;;;;;27.44;100.00;95636.47;10482491;28;2411;-79
2023/09/11 09:20:11;;;;;;;;;;;;;;;27.62;100.00;95627.47;10471834;28;1984;-78
2023/09/11 09:25:14;;;;;;;;;;;;;;;27.53;100.00;95632.53;10484743;28;1665;-80
2023/09/11 09:30:16;;;;;;;;;;;;;;;27.52;100.00;95619.94;10471921;28;1598;-78
2023/09/11 09:35:19;;;;;;;;;;;;;;;27.61;100.00;95610.13;10471940;28;1687;-79
2023/09/11 09:40:21;;;;;;;;;;;;;;;28.01;100.00;95609.13;10474459;28;5119;-80
2023/09/11 09:45:24;;;;;;;;;;;;;;;27.95;100.00;95613.44;10472653;28;1280;-77
2023/09/11 09:50:26;;;;;;;;;;;;;;;27.76;100.00;95607.44;10478666;28;1428;-79
2023/09/11 09:55:30;;;;;;;;;;;;;;;28.01;100.00;95606.34;10455013;28;1444;-79
2023/09/11 10:00:32;;;;;;;;;;;;;;;28.09;100.00;95600.84;10482605;28;1906;-79
2023/09/11 10:05:35;;;;;;;;;;;;;;;28.01;100.00;95591.75;10468975;28;1419;-80
2023/09/11 10:10:37;;;;;;;;;;;;;;;27.57;100.00;95583.69;10477792;28;2298;-80
2023/09/11 10:15:39;;;;;;;;;;;;;;;27.91;100.00;95576.72;10462624;28;1592;-81
2023/09/11 10:20:42;;;;;;;;;;;;;;;27.99;100.00;95572.00;10465423;28;1972;-79
2023/09/11 10:25:44;;;;;;;;;;;;;;;27.90;100.00;95572.38;10488788;28;1431;-78
2023/09/11 10:30:47;;;;;;;;;;;;;;;28.06;99.73;95571.22;10481035;28;1035;-79
2023/09/11 10:36:08;;;;;;;;;;;;;;;27.93;100.00;95568.84;10477159;28;1383;-79
2023/09/11 10:41:11;;;;;;;;;;;;;;;27.98;100.00;95559.38;10458318;28;5153;-78
2023/09/11 10:46:13;;;;;;;;;;;;;;;28.21;100.00;95554.28;10465813;28;1369;-79
2023/09/11 10:51:17;;;;;;;;;;;;;;;28.52;99.48;95547.22;10473954;28;1364;-79
2023/09/11 10:56:20;;;;;;;;;;;;;;;28.67;100.00;95545.25;10483530;28;1412;-79
2023/09/11 11:01:22;;;;;;;;;;;;;;;28.72;86.23;95541.28;10482711;28;1981;-80
2023/09/11 11:06:25;;;;;;;;;;;;;;;28.82;80.93;95534.97;10469582;28;2469;-77
2023/09/11 11:11:29;;;;;;;;;;;;;;;28.66;83.01;95538.13;10477550;28;1552;-78
2023/09/11 11:16:32;;;;;;;;;;;;;;;28.84;83.68;95535.34;10489511;28;1503;-78
2023/09/11 11:21:34;;;;;;;;;;;;;;;28.90;82.23;95530.22;10465248;28;1958;-80
2023/09/11 11:26:37;;;;;;;;;;;;;;;28.85;82.33;95525.88;10488638;28;1355;-79
2023/09/11 11:31:40;;;;;;;;;;;;;;;28.75;86.30;95523.88;10476942;28;1172;-79
2023/09/11 11:36:42;;;;;;;;;;;;;;;28.90;86.40;95516.38;10482028;28;1365;-79
2023/09/11 11:41:45;;;;;;;;;;;;;;;28.68;90.11;95510.06;10484533;28;5132;-79
2023/09/11 11:46:47;;;;;;;;;;;;;;;29.04;84.84;95508.84;10494082;28;1474;-79
2023/09/11 11:51:53;;;;;;;;;;;;;;;28.64;85.87;95512.88;10478870;28;1360;-80
2023/09/11 11:56:56;;;;;;;;;;;;;;;28.65;81.24;95508.91;10467895;28;1087;-80
2023/09/11 12:01:58;;;;;;;;;;;;;;;28.74;80.17;95505.72;10479878;28;2491;-80
2023/09/11 12:07:02;;;;;;;;;;;;;;;28.89;85.13;95504.53;10477881;28;1477;-80
2023/09/11 12:12:05;;;;;;;;;;;;;;;29.18;84.39;95501.69;10493314;28;1682;-79
2023/09/11 12:17:07;;;;;;;;;;;;;;;29.04;86.79;95497.00;10497825;28;1571;-79
2023/09/11 12:22:10;;;;;;;;;;;;;;;29.22;88.77;95499.72;10477675;28;1917;-79
2023/09/11 12:27:12;;;;;;;;;;;;;;;29.26;81.21;95486.63;10471536;28;1560;-80
2023/09/11 12:32:15;;;;;;;;;;;;;;;29.15;70.30;95491.44;10468923;28;1219;-79
2023/09/11 12:37:17;;;;;;;;;;;;;;;29.22;71.25;95489.44;10474622;28;1336;-80
2023/09/11 12:42:20;;;;;;;;;;;;;;;29.38;88.75;95477.88;10491338;28;5248;-80
2023/09/11 12:47:22;;;;;;;;;;;;;;;29.34;90.70;95472.38;10482868;28;1376;-80
2023/09/11 12:52:25;;;;;;;;;;;;;;;29.36;82.20;95480.28;10479935;28;1372;-78
2023/09/11 12:57:27;;;;;;;;;;;;;;;29.21;86.22;95470.47;10460118;28;1224;-80
2023/09/11 13:02:29;;;;;;;;;;;;;;;29.21;87.47;95468.47;10472820;28;1984;-80
2023/09/11 13:07:32;;;;;;;;;;;;;;;28.95;88.34;95478.06;10504862;28;1380;-79
2023/09/11 13:12:34;;;;;;;;;;;;;;;29.07;86.79;95474.88;10482094;28;1035;-78
2023/09/11 13:17:37;;;;;;;;;;;;;;;29.12;84.25;95462.56;10472892;28;1392;-79
2023/09/11 13:22:40;;;;;;;;;;;;;;;28.87;83.60;95459.06;10480509;28;1918;-79
2023/09/11 13:27:42;;;;;;;;;;;;;;;28.96;83.83;95457.50;10461084;28;1242;-79
2023/09/11 13:32:46;;;;;;;;;;;;;;;29.31;84.15;95450.22;10480688;28;1432;-79
2023/09/11 13:37:50;;;;;;;;;;;;;;;29.16;85.77;95454.28;10472782;28;1400;-80
2023/09/11 13:42:53;;;;;;;;;;;;;;;28.89;85.76;95449.19;10477001;28;5067;-79
2023/09/11 13:47:56;;;;;;;;;;;;;;;28.88;87.89;95444.81;10448958;28;1794;-80
2023/09/11 13:52:59;;;;;;;;;;;;;;;28.91;83.97;95437.72;10468136;28;2268;-80
2023/09/11 13:58:02;;;;;;;;;;;;;;;28.99;85.88;95444.84;10484297;28;1535;-79
2023/09/11 14:03:04;;;;;;;;;;;;;;;29.07;83.99;95435.31;10473620;28;1926;-80
2023/09/11 14:08:07;;;;;;;;;;;;;;;29.05;82.45;95440.47;10470977;28;1399;-79
2023/09/11 14:13:09;;;;;;;;;;;;;;;28.97;79.76;95430.63;10482247;28;1008;-78
2023/09/11 14:18:13;;;;;;;;;;;;;;;28.77;82.16;95427.50;10475316;28;1402;-79
2023/09/11 14:23:15;;;;;;;;;;;;;;;28.83;77.91;95422.34;10470033;28;1973;-78
2023/09/11 14:28:18;;;;;;;;;;;;;;;28.77;74.14;95424.72;10487529;28;1459;-78
2023/09/11 14:33:21;;;;;;;;;;;;;;;28.67;70.73;95420.00;10472618;28;1106;-79
2023/09/11 14:38:23;;;;;;;;;;;;;;;28.64;67.24;95418.06;10475877;28;1404;-79
2023/09/11 14:43:26;;;;;;;;;;;;;;;28.42;71.82;95418.06;10479031;28;5146;-79
2023/09/11 14:48:28;;;;;;;;;;;;;;;28.58;74.87;95408.59;10466293;28;1143;-78
2023/09/11 14:53:31;;;;;;;;;;;;;;;28.45;73.44;95406.25;10473526;28;1376;-79
2023/09/11 14:58:33;;;;;;;;;;;;;;;28.31;76.21;95405.44;10477074;28;1058;-79
2023/09/11 15:03:35;;;;;;;;;;;;;;;28.31;70.14;95406.25;10477124;28;1993;-79
2023/09/11 15:08:38;;;;;;;;;;;;;;;28.32;72.54;95402.31;10465016;28;1429;-79
2023/09/11 15:13:41;;;;;;;;;;;;;;;28.13;75.19;95400.72;10464145;28;1717;-76
2023/09/11 15:18:44;;;;;;;;;;;;;;;28.14;76.08;95391.25;10454446;28;1445;-76
2023/09/11 15:23:47;;;;;;;;;;;;;;;28.04;68.22;95394.00;10478574;28;1890;-76
2023/09/11 15:28:49;;;;;;;;;;;;;;;28.02;69.42;95391.66;10472137;28;1465;-75
2023/09/11 15:33:52;;;;;;;;;;;;;;;27.82;67.51;95396.00;10471321;28;1490;-75
2023/09/11 15:38:54;;;;;;;;;;;;;;;27.62;73.36;95381.75;10453387;28;1470;-80
2023/09/11 15:43:57;;;;;;;;;;;;;;;27.62;72.04;95376.22;10484325;28;1997;-78
2023/09/11 15:48:59;;;;;;;;;;;;;;;27.60;70.58;95386.84;10476939;28;2330;-78
2023/09/11 15:54:02;;;;;;;;;;;;;;;27.63;69.00;95381.34;10460135;28;1600;-76
2023/09/11 15:59:04;;;;;;;;;;;;;;;27.47;72.54;95384.47;10469654;28;1799;-79
2023/09/11 16:04:06;;;;;;;;;;;;;;;27.43;70.60;95386.47;10468600;28;1969;-79
2023/09/11 16:09:09;;;;;;;;;;;;;;;27.41;72.03;95379.72;10463046;28;1306;-77
2023/09/11 16:14:11;;;;;;;;;;;;;;;27.23;72.85;95376.16;10484872;28;1480;-80
2023/09/11 16:19:15;;;;;;;;;;;;;;;27.25;75.62;95373.81;10443868;28;1515;-80
2023/09/11 16:24:19;;;;;;;;;;;;;;;27.21;75.12;95379.31;10475270;28;1918;-78
2023/09/11 16:29:22;;;;;;;;;;;;;;;27.09;82.22;95379.66;10473643;28;1525;-78
2023/09/11 16:34:24;;;;;;;;;;;;;;;27.07;78.29;95382.81;10470848;28;1536;-79
2023/09/11 16:39:26;;;;;;;;;;;;;;;26.82;83.58;95387.41;10470741;28;1486;-78
2023/09/11 16:44:29;;;;;;;;;;;;;;;26.77;85.18;95383.06;10469695;28;2349;-79
2023/09/11 16:49:31;;;;;;;;;;;;;;;26.63;86.57;95394.03;10464673;28;1454;-78
2023/09/11 16:54:34;;;;;;;;;;;;;;;26.42;87.95;95388.41;10469943;28;1500;-78
2023/09/11 16:59:36;;;;;;;;;;;;;;;26.27;90.58;95385.50;10467474;28;1478;-78
2023/09/11 17:04:39;;;;;;;;;;;;;;;26.11;92.42;95391.31;10471011;28;1984;-78
2023/09/11 17:09:41;;;;;;;;;;;;;;;25.92;96.79;95393.53;10469442;28;1618;-79
2023/09/11 17:14:44;;;;;;;;;;;;;;;25.74;98.49;95399.69;10469807;28;1479;-79
2023/09/11 17:19:46;;;;;;;;;;;;;;;25.46;100.00;95397.44;10472501;28;1449;-77
2023/09/11 17:24:50;;;;;;;;;;;;;;;25.22;100.00;95404.28;10466225;28;2370;-78
2023/09/11 17:29:52;;;;;;;;;;;;;;;25.08;100.00;95395.88;10468677;28;1474;-79
2023/09/11 17:34:57;;;;;;;;;;;;;;;24.90;100.00;95397.59;10482423;28;1541;-80
2023/09/11 17:40:00;;;;;;;;;;;;;;;24.68;100.00;95402.81;10467122;28;5059;-77
2023/09/11 17:45:02;;;;;;;;;;;;;;;24.55;100.00;95412.44;10467365;28;1918;-79
2023/09/11 17:50:05;;;;;;;;;;;;;;;24.37;100.00;95408.69;10467984;28;1473;-80
2023/09/11 17:55:10;;;;;;;;;;;;;;;24.20;100.00;95412.72;10455405;28;1635;-79
2023/09/11 18:00:12;;;;;;;;;;;;;;;24.08;100.00;95416.47;10468736;28;1934;-78
2023/09/11 18:05:15;;;;;;;;;;;;;;;23.90;100.00;95423.63;10467862;28;1481;-79
2023/09/11 18:10:17;;;;;;;;;;;;;;;23.73;100.00;95417.47;10473172;28;1478;-79
2023/09/11 18:15:20;;;;;;;;;;;;;;;23.66;100.00;95420.09;10469872;28;1562;-79
2023/09/11 18:20:23;;;;;;;;;;;;;;;23.48;100.00;95432.69;10466046;28;1960;-79
2023/09/11 18:25:25;;;;;;;;;;;;;;;23.45;100.00;95423.22;10471222;28;1576;-79
2023/09/11 18:30:28;;;;;;;;;;;;;;;23.36;100.00;95435.59;10476945;28;1442;-79
2023/09/11 18:35:30;;;;;;;;;;;;;;;23.26;100.00;95439.72;10473109;28;2530;-79
2023/09/11 18:40:33;;;;;;;;;;;;;;;23.17;100.00;95436.41;10466113;28;5079;-79
2023/09/11 18:45:35;;;;;;;;;;;;;;;23.03;100.00;95436.94;10468199;28;1501;-79
2023/09/11 18:50:37;;;;;;;;;;;;;;;22.92;100.00;95438.66;10462381;28;1487;-79
2023/09/11 18:55:40;;;;;;;;;;;;;;;22.82;100.00;95440.00;10471287;28;1483;-80
2023/09/11 19:00:44;;;;;;;;;;;;;;;22.73;100.00;95446.84;10466331;28;1906;-79
2023/09/11 19:05:46;;;;;;;;;;;;;;;22.66;100.00;95442.00;10467092;28;1510;-79
2023/09/11 19:10:49;;;;;;;;;;;;;;;22.50;100.00;95436.56;10462095;28;1598;-78
2023/09/11 19:15:51;;;;;;;;;;;;;;;22.41;100.00;95452.41;10475805;28;1690;-78
2023/09/11 19:20:54;;;;;;;;;;;;;;;22.33;100.00;95448.72;10466642;28;1968;-78
2023/09/11 19:25:56;;;;;;;;;;;;;;;22.32;100.00;95454.53;10468334;28;1450;-80
2023/09/11 19:30:58;;;;;;;;;;;;;;;22.20;100.00;95458.19;10475858;28;2433;-78
2023/09/11 19:36:01;;;;;;;;;;;;;;;22.09;100.00;95451.69;10469518;28;1450;-79
2023/09/11 19:41:06;;;;;;;;;;;;;;;22.05;100.00;95454.28;10464693;28;5190;-79
2023/09/11 19:46:08;;;;;;;;;;;;;;;21.94;100.00;95455.97;10479986;28;1486;-79
2023/09/11 19:51:11;;;;;;;;;;;;;;;21.94;100.00;95457.91;10476424;28;1400;-79
2023/09/11 19:56:13;;;;;;;;;;;;;;;21.82;100.00;95451.41;10476021;28;1500;-79
2023/09/11 20:01:16;;;;;;;;;;;;;;;21.80;100.00;95445.47;10467807;28;1973;-79
2023/09/11 20:06:18;;;;;;;;;;;;;;;21.78;100.00;95447.00;10464158;28;1352;-79
2023/09/11 20:11:20;;;;;;;;;;;;;;;21.70;100.00;95451.50;10479597;28;1657;-78
2023/09/11 20:16:23;;;;;;;;;;;;;;;21.58;100.00;95448.84;10473545;28;1504;-79
2023/09/11 20:21:25;;;;;;;;;;;;;;;21.55;100.00;95441.31;10477788;28;1913;-79
2023/09/11 20:26:28;;;;;;;;;;;;;;;21.43;100.00;95442.19;10465588;28;2298;-79
2023/09/11 20:31:30;;;;;;;;;;;;;;;21.44;100.00;95441.06;10465046;28;1414;-79
2023/09/11 20:36:33;;;;;;;;;;;;;;;21.38;100.00;95434.25;10473481;28;1481;-79
2023/09/11 20:41:35;;;;;;;;;;;;;;;21.41;100.00;95436.28;10473790;28;5233;-79
2023/09/11 20:46:37;;;;;;;;;;;;;;;21.31;100.00;95428.59;10470594;28;1606;-79
2023/09/11 20:51:40;;;;;;;;;;;;;;;21.24;100.00;95433.84;10462619;28;1719;-79
2023/09/11 20:56:42;;;;;;;;;;;;;;;21.22;100.00;95433.41;10466120;28;1590;-76
2023/09/11 21:01:45;;;;;;;;;;;;;;;21.18;100.00;95435.22;10484283;28;1978;-75
2023/09/11 21:06:47;;;;;;;;;;;;;;;21.17;100.00;95439.09;10488491;28;1484;-76
2023/09/11 21:11:50;;;;;;;;;;;;;;;21.15;100.00;95438.69;10491080;28;1506;-74
2023/09/11 21:16:52;;;;;;;;;;;;;;;21.07;100.00;95445.09;10484186;28;1551;-74
2023/09/11 21:21:55;;;;;;;;;;;;;;;21.13;100.00;95449.16;10489425;28;1879;-74
2023/09/11 21:26:57;;;;;;;;;;;;;;;21.01;100.00;95441.81;10487781;28;2391;-76
2023/09/11 21:32:01;;;;;;;;;;;;;;;20.94;100.00;95447.09;10483680;28;1594;-74
2023/09/11 21:37:04;;;;;;;;;;;;;;;20.94;100.00;95442.41;10482365;28;1548;-75
2023/09/11 21:42:07;;;;;;;;;;;;;;;21.05;100.00;95445.41;10490277;28;5070;-76
2023/09/11 21:47:09;;;;;;;;;;;;;;;21.04;100.00;95441.91;10475404;28;1541;-74
2023/09/11 21:52:11;;;;;;;;;;;;;;;20.82;100.00;95450.66;10489646;28;1505;-77
2023/09/11 21:57:14;;;;;;;;;;;;;;;20.91;100.00;95448.56;10482808;28;1480;-74
2023/09/11 22:02:17;;;;;;;;;;;;;;;20.71;100.00;95441.34;10484595;28;1973;-74
2023/09/11 22:07:20;;;;;;;;;;;;;;;20.62;100.00;95433.31;10470442;28;1515;-75
2023/09/11 22:12:22;;;;;;;;;;;;;;;20.85;100.00;95435.50;10473857;28;1342;-73
2023/09/11 22:17:25;;;;;;;;;;;;;;;20.70;100.00;95431.56;10482309;28;1525;-73
2023/09/11 22:22:27;;;;;;;;;;;;;;;20.73;100.00;95428.94;10480801;28;1979;-74
2023/09/11 22:27:30;;;;;;;;;;;;;;;20.63;100.00;95420.44;10483839;28;1570;-73
2023/09/11 22:32:32;;;;;;;;;;;;;;;20.63;100.00;95421.25;10471570;28;1489;-74
2023/09/11 22:37:55;;;;;;;;;;;;;;;20.88;100.00;95421.16;10470197;28;1499;-74
2023/09/11 22:42:57;;;;;;;;;;;;;;;20.83;100.00;95418.66;10472006;28;5098;-74
2023/09/11 22:48:08;;;;;;;;;;;;;;;20.83;100.00;95419.47;10458497;28;1594;-74
2023/09/11 22:53:11;;;;;;;;;;;;;;;20.74;100.00;95416.06;10482448;28;1509;-74
2023/09/11 22:58:14;;;;;;;;;;;;;;;21.03;100.00;95413.00;10481950;28;1478;-74
2023/09/11 23:03:16;;;;;;;;;;;;;;;21.07;100.00;95418.56;10480180;28;1914;-73
2023/09/11 23:08:19;;;;;;;;;;;;;;;21.22;100.00;95415.06;10460676;28;1950;-74
2023/09/11 23:13:21;;;;;;;;;;;;;;;21.00;100.00;95418.38;10487117;28;1464;-76
2023/09/11 23:18:23;;;;;;;;;;;;;;;21.23;100.00;95418.59;10494498;28;1584;-76
2023/09/11 23:23:26;;;;;;;;;;;;;;;21.12;100.00;95420.22;10491042;28;1981;-76
2023/09/11 23:28:28;;;;;;;;;;;;;;;21.00;100.00;95419.16;10504226;28;1431;-75
2023/09/11 23:33:31;;;;;;;;;;;;;;;20.38;100.00;95425.94;10490133;28;1497;-75
2023/09/11 23:38:33;;;;;;;;;;;;;;;20.13;100.00;95427.13;10494251;28;1434;-75
2023/09/11 23:43:35;;;;;;;;;;;;;;;19.92;100.00;95429.97;10488608;28;5094;-74
2023/09/11 23:48:38;;;;;;;;;;;;;;;19.77;100.00;95425.19;10489281;28;1517;-75
2023/09/11 23:53:40;;;;;;;;;;;;;;;20.04;100.00;95420.97;10480725;28;1629;-74
2023/09/11 23:58:43;;;;;;;;;;;;;;;19.93;100.00;95421.44;10486618;28;1471;-76
